createdAt,value
2018-08-20T00:00:10.721Z,25.22
2018-08-20T00:01:10.748Z,25.25
2018-08-20T00:02:10.778Z,25.09
2018-08-20T00:03:10.807Z,25.15
2018-08-20T00:04:10.825Z,25.06
2018-08-20T00:05:10.852Z,25.01
2018-08-20T00:06:10.884Z,25.15
2018-08-20T00:07:10.907Z,25.28
2018-08-20T00:08:10.960Z,25.24
2018-08-20T00:09:10.948Z,25.25
2018-08-20T00:10:10.986Z,25.24
2018-08-20T00:11:11.008Z,25.07
2018-08-20T00:12:11.035Z,25.07
2018-08-20T00:14:11.087Z,25.02
2018-08-20T00:15:11.115Z,25.12
2018-08-20T00:16:11.136Z,25.07
2018-08-20T00:17:11.155Z,25.00
2018-08-20T00:18:11.191Z,25.09
2018-08-20T00:19:11.211Z,25.02
2018-08-20T00:20:11.248Z,25.01
2018-08-20T00:21:11.349Z,25.12
2018-08-20T00:23:11.345Z,25.02
2018-08-20T00:24:11.344Z,25.12
2018-08-20T00:26:11.398Z,24.97
2018-08-20T00:27:11.413Z,25.06
2018-08-20T00:29:11.476Z,25.06
2018-08-20T00:30:11.512Z,25.02
2018-08-20T00:31:11.538Z,24.94
2018-08-20T00:32:32.573Z,24.94
2018-08-20T00:33:11.576Z,25.02
2018-08-20T00:34:11.599Z,25.06
2018-08-20T00:35:11.637Z,25.02
2018-08-20T00:36:11.655Z,24.91
2018-08-20T00:37:11.677Z,25.05
2018-08-20T00:38:11.711Z,25.02
2018-08-20T00:39:11.728Z,24.92
2018-08-20T00:40:11.767Z,24.92
2018-08-20T00:41:11.781Z,24.87
2018-08-20T00:42:11.806Z,24.92
2018-08-20T00:43:11.854Z,25.05
2018-08-20T00:44:11.855Z,24.92
2018-08-20T00:45:11.879Z,25.01
2018-08-20T00:46:11.913Z,24.98
2018-08-20T00:47:11.938Z,24.91
2018-08-20T00:48:11.959Z,24.88
2018-08-20T00:49:12.008Z,24.85
2018-08-20T00:50:12.008Z,24.90
2018-08-20T00:51:12.547Z,24.73
2018-08-20T00:52:12.075Z,24.79
2018-08-20T00:53:12.086Z,24.83
2018-08-20T00:54:12.133Z,24.88
2018-08-20T00:55:12.145Z,24.91
2018-08-20T00:56:12.165Z,24.80
2018-08-20T00:57:12.843Z,24.85
2018-08-20T00:58:12.278Z,24.91
2018-08-20T00:59:12.280Z,24.69
2018-08-20T01:00:12.266Z,24.69
2018-08-20T01:01:12.293Z,24.69
2018-08-20T01:03:12.344Z,24.47
2018-08-20T01:04:12.368Z,24.54
2018-08-20T01:05:12.398Z,24.60
2018-08-20T01:06:12.425Z,24.73
2018-08-20T01:07:12.451Z,24.71
2018-08-20T01:08:12.473Z,24.68
2018-08-20T01:09:12.496Z,24.68
2018-08-20T01:10:12.540Z,24.69
2018-08-20T01:11:14.540Z,24.69
2018-08-20T01:12:12.569Z,24.68
2018-08-20T01:13:12.608Z,24.64
2018-08-20T01:14:12.620Z,24.60
2018-08-20T01:15:12.689Z,24.53
2018-08-20T01:16:12.672Z,24.54
2018-08-20T01:17:12.706Z,24.54
2018-08-20T01:18:12.724Z,24.52
2018-08-20T01:19:12.757Z,24.63
2018-08-20T01:20:12.790Z,24.42
2018-08-20T01:21:12.806Z,24.52
2018-08-20T01:22:12.840Z,24.53
2018-08-20T01:23:12.866Z,24.64
2018-08-20T01:24:12.879Z,24.54
2018-08-20T01:25:12.904Z,24.53
2018-08-20T01:27:12.972Z,24.52
2018-08-20T01:28:12.994Z,24.52
2018-08-20T01:29:13.006Z,24.52
2018-08-20T01:30:13.030Z,24.45
2018-08-20T01:31:13.087Z,24.34
2018-08-20T01:32:13.080Z,24.38
2018-08-20T01:33:13.112Z,24.35
2018-08-20T01:34:13.127Z,24.39
2018-08-20T01:35:13.164Z,24.49
2018-08-20T01:36:13.190Z,24.35
2018-08-20T01:37:13.209Z,24.37
2018-08-20T01:38:13.240Z,24.27
2018-08-20T01:39:13.370Z,24.39
2018-08-20T01:40:13.294Z,24.22
2018-08-20T01:41:13.321Z,24.22
2018-08-20T01:42:13.364Z,24.39
2018-08-20T01:43:13.406Z,24.39
2018-08-20T01:44:13.390Z,24.22
2018-08-20T01:45:13.416Z,24.34
2018-08-20T01:46:13.458Z,24.24
2018-08-20T01:47:13.486Z,24.16
2018-08-20T01:48:13.701Z,24.22
2018-08-20T01:49:13.509Z,24.20
2018-08-20T01:50:13.539Z,24.07
2018-08-20T01:51:13.564Z,24.22
2018-08-20T01:52:13.674Z,24.31
2018-08-20T01:53:13.645Z,24.17
2018-08-20T01:54:13.640Z,24.14
2018-08-20T01:55:13.692Z,24.13
2018-08-20T01:56:13.710Z,24.22
2018-08-20T01:57:13.714Z,24.13
2018-08-20T01:58:13.774Z,24.07
2018-08-20T01:59:13.772Z,24.14
2018-08-20T02:00:13.830Z,24.07
2018-08-20T02:01:13.841Z,24.08
2018-08-20T02:02:13.834Z,24.14
2018-08-20T02:03:13.860Z,24.04
2018-08-20T02:04:13.914Z,24.20
2018-08-20T02:05:13.914Z,24.23
2018-08-20T02:06:13.938Z,24.17
2018-08-20T02:07:13.973Z,24.20
2018-08-20T02:08:13.990Z,24.19
2018-08-20T02:09:14.020Z,24.16
2018-08-20T02:10:14.041Z,24.14
2018-08-20T02:11:14.065Z,24.23
2018-08-20T02:13:14.318Z,24.19
2018-08-20T02:14:14.141Z,24.04
2018-08-20T02:16:14.215Z,23.89
2018-08-20T02:17:14.210Z,23.92
2018-08-20T02:18:14.693Z,24.00
2018-08-20T02:19:14.270Z,23.98
2018-08-20T02:20:14.304Z,23.97
2018-08-20T02:21:14.314Z,24.04
2018-08-20T02:22:14.347Z,23.87
2018-08-20T02:23:14.983Z,23.92
2018-08-20T02:24:14.505Z,24.02
2018-08-20T02:25:14.427Z,23.92
2018-08-20T02:26:14.441Z,24.01
2018-08-20T02:27:14.474Z,23.97
2018-08-20T02:28:14.494Z,23.90
2018-08-20T02:29:14.769Z,23.89
2018-08-20T02:30:14.773Z,23.97
2018-08-20T02:31:14.569Z,23.90
2018-08-20T02:32:14.779Z,23.70
2018-08-20T02:33:14.801Z,23.61
2018-08-20T02:34:14.647Z,23.61
2018-08-20T02:35:14.873Z,23.85
2018-08-20T02:36:14.726Z,23.72
2018-08-20T02:37:14.713Z,23.71
2018-08-20T02:38:14.744Z,23.76
2018-08-20T02:39:14.803Z,23.70
2018-08-20T02:40:15.401Z,23.90
2018-08-20T02:41:14.820Z,23.86
2018-08-20T02:42:14.839Z,23.83
2018-08-20T02:43:14.865Z,23.90
2018-08-20T02:44:14.893Z,23.76
2018-08-20T02:45:14.915Z,23.68
2018-08-20T02:46:14.967Z,23.64
2018-08-20T02:47:14.985Z,23.62
2018-08-20T02:48:15.081Z,23.58
2018-08-20T02:49:15.016Z,23.55
2018-08-20T02:50:15.038Z,23.58
2018-08-20T02:51:15.066Z,23.58
2018-08-20T02:52:15.109Z,23.70
2018-08-20T02:53:15.117Z,23.61
2018-08-20T02:54:15.136Z,23.60
2018-08-20T02:55:15.167Z,23.58
2018-08-20T02:56:15.187Z,23.60
2018-08-20T02:57:15.213Z,23.62
2018-08-20T02:58:15.235Z,23.58
2018-08-20T02:59:15.259Z,23.47
2018-08-20T03:00:15.279Z,23.60
2018-08-20T03:01:15.316Z,23.72
2018-08-20T03:02:15.337Z,23.52
2018-08-20T03:03:15.366Z,23.46
2018-08-20T03:04:15.389Z,23.39
2018-08-20T03:05:15.829Z,23.38
2018-08-20T03:06:15.437Z,23.20
2018-08-20T03:07:15.791Z,23.19
2018-08-20T03:08:15.479Z,23.35
2018-08-20T03:09:15.505Z,23.40
2018-08-20T03:10:15.674Z,23.46
2018-08-20T03:11:15.558Z,23.26
2018-08-20T03:12:15.593Z,23.01
2018-08-20T03:13:15.608Z,23.20
2018-08-20T03:14:15.632Z,22.99
2018-08-20T03:15:15.658Z,23.02
2018-08-20T03:16:15.682Z,23.08
2018-08-20T03:17:15.842Z,22.84
2018-08-20T03:18:15.738Z,22.83
2018-08-20T03:19:15.749Z,22.82
2018-08-20T03:20:15.777Z,22.86
2018-08-20T03:21:15.802Z,22.90
2018-08-20T03:22:15.830Z,23.01
2018-08-20T03:23:15.859Z,22.90
2018-08-20T03:24:15.880Z,22.84
2018-08-20T03:25:15.898Z,22.83
2018-08-20T03:26:15.929Z,22.86
2018-08-20T03:27:15.966Z,22.80
2018-08-20T03:28:15.974Z,22.87
2018-08-20T03:29:16.000Z,22.84
2018-08-20T03:30:16.030Z,22.78
2018-08-20T03:31:16.050Z,22.78
2018-08-20T03:32:16.073Z,22.77
2018-08-20T03:34:16.127Z,22.67
2018-08-20T03:35:16.149Z,22.67
2018-08-20T03:36:16.188Z,22.74
2018-08-20T03:37:16.199Z,22.78
2018-08-20T03:38:16.221Z,22.86
2018-08-20T03:39:16.247Z,22.90
2018-08-20T03:40:16.272Z,22.86
2018-08-20T03:41:16.291Z,22.80
2018-08-20T03:42:16.318Z,22.80
2018-08-20T03:43:16.349Z,22.92
2018-08-20T03:44:16.370Z,23.02
2018-08-20T03:45:16.391Z,22.86
2018-08-20T03:46:16.428Z,22.74
2018-08-20T03:47:16.441Z,22.74
2018-08-20T03:48:16.857Z,22.75
2018-08-20T03:49:16.486Z,22.87
2018-08-20T03:50:16.515Z,22.92
2018-08-20T03:51:16.590Z,22.86
2018-08-20T03:52:16.561Z,22.84
2018-08-20T03:53:16.604Z,22.94
2018-08-20T03:54:16.624Z,22.96
2018-08-20T03:55:16.635Z,22.96
2018-08-20T03:56:16.654Z,22.90
2018-08-20T03:57:16.885Z,22.97
2018-08-20T03:58:16.714Z,22.92
2018-08-20T03:59:16.881Z,23.09
2018-08-20T04:00:16.759Z,23.05
2018-08-20T04:01:16.827Z,22.99
2018-08-20T04:02:16.805Z,23.09
2018-08-20T04:03:16.890Z,23.07
2018-08-20T04:04:16.860Z,22.99
2018-08-20T04:06:16.924Z,22.89
2018-08-20T04:07:16.940Z,22.84
2018-08-20T04:08:16.950Z,22.74
2018-08-20T04:09:16.974Z,22.69
2018-08-20T04:10:17.006Z,22.78
2018-08-20T04:11:17.023Z,22.57
2018-08-20T04:12:17.053Z,22.64
2018-08-20T04:13:17.080Z,22.75
2018-08-20T04:14:17.124Z,22.72
2018-08-20T04:15:17.117Z,22.77
2018-08-20T04:16:17.145Z,23.02
2018-08-20T04:17:17.176Z,22.83
2018-08-20T04:18:17.202Z,22.86
2018-08-20T04:19:17.215Z,22.67
2018-08-20T04:20:17.238Z,22.57
2018-08-20T04:21:17.321Z,22.80
2018-08-20T04:22:17.943Z,22.82
2018-08-20T04:23:17.428Z,22.83
2018-08-20T04:24:17.455Z,22.77
2018-08-20T04:25:17.373Z,22.78
2018-08-20T04:26:17.387Z,22.65
2018-08-20T04:27:17.412Z,22.54
2018-08-20T04:28:17.570Z,22.75
2018-08-20T04:29:17.660Z,22.92
2018-08-20T04:30:17.490Z,22.77
2018-08-20T04:31:17.633Z,22.86
2018-08-20T04:32:17.533Z,22.75
2018-08-20T04:33:17.948Z,22.69
2018-08-20T04:34:17.942Z,22.77
2018-08-20T04:35:17.786Z,22.72
2018-08-20T04:36:17.661Z,22.87
2018-08-20T04:37:17.660Z,22.89
2018-08-20T04:38:17.681Z,22.89
2018-08-20T04:39:17.698Z,22.87
2018-08-20T04:40:17.731Z,22.83
2018-08-20T04:41:17.753Z,22.87
2018-08-20T04:42:17.873Z,22.82
2018-08-20T04:44:17.872Z,22.94
2018-08-20T04:46:17.872Z,23.12
2018-08-20T04:47:17.889Z,23.17
2018-08-20T04:48:17.922Z,23.09
2018-08-20T04:49:17.946Z,23.01
2018-08-20T04:50:18.176Z,22.93
2018-08-20T04:51:18.187Z,23.09
2018-08-20T04:52:18.169Z,22.93
2018-08-20T04:53:18.043Z,23.07
2018-08-20T04:54:18.153Z,23.01
2018-08-20T04:55:18.096Z,22.93
2018-08-20T04:56:18.248Z,22.93
2018-08-20T04:57:18.135Z,22.94
2018-08-20T04:58:18.336Z,22.96
2018-08-20T04:59:18.348Z,23.07
2018-08-20T05:00:18.366Z,23.02
2018-08-20T05:01:18.413Z,23.05
2018-08-20T05:02:18.441Z,23.02
2018-08-20T05:03:18.472Z,23.15
2018-08-20T05:04:18.508Z,23.14
2018-08-20T05:05:18.497Z,23.11
2018-08-20T05:06:18.355Z,23.02
2018-08-20T05:07:18.557Z,23.14
2018-08-20T05:08:18.408Z,23.08
2018-08-20T05:09:18.521Z,23.20
2018-08-20T05:10:18.456Z,23.07
2018-08-20T05:11:18.561Z,23.07
2018-08-20T05:12:18.507Z,23.15
2018-08-20T05:13:18.555Z,23.07
2018-08-20T05:14:18.736Z,23.23
2018-08-20T05:15:18.576Z,23.08
2018-08-20T05:16:18.595Z,23.09
2018-08-20T05:17:18.625Z,23.04
2018-08-20T05:18:18.656Z,22.84
2018-08-20T05:19:18.705Z,22.89
2018-08-20T05:20:18.707Z,23.05
2018-08-20T05:21:18.721Z,23.08
2018-08-20T05:22:18.748Z,23.08
2018-08-20T05:23:18.777Z,23.02
2018-08-20T05:25:18.822Z,22.84
2018-08-20T05:26:18.844Z,22.99
2018-08-20T05:27:18.870Z,23.20
2018-08-20T05:28:18.893Z,23.05
2018-08-20T05:29:18.927Z,23.07
2018-08-20T05:30:18.943Z,22.89
2018-08-20T05:31:18.966Z,22.87
2018-08-20T05:32:19.023Z,23.04
2018-08-20T05:33:19.056Z,23.07
2018-08-20T05:34:19.041Z,23.20
2018-08-20T05:36:19.088Z,22.93
2018-08-20T05:37:19.117Z,22.92
2018-08-20T05:38:19.170Z,23.01
2018-08-20T05:39:19.184Z,23.07
2018-08-20T05:40:19.188Z,23.14
2018-08-20T05:41:19.207Z,23.08
2018-08-20T05:42:19.234Z,23.04
2018-08-20T05:43:19.260Z,22.96
2018-08-20T05:44:19.298Z,23.01
2018-08-20T05:45:19.320Z,23.09
2018-08-20T05:46:19.337Z,23.09
2018-08-20T05:47:19.356Z,23.15
2018-08-20T05:48:19.389Z,23.22
2018-08-20T05:49:19.406Z,23.29
2018-08-20T05:50:19.436Z,23.14
2018-08-20T05:51:19.462Z,23.17
2018-08-20T05:52:19.491Z,23.31
2018-08-20T05:53:19.511Z,23.20
2018-08-20T05:54:19.529Z,23.20
2018-08-20T05:55:19.552Z,23.12
2018-08-20T05:56:19.575Z,23.29
2018-08-20T05:57:19.595Z,23.29
2018-08-20T05:58:19.622Z,23.11
2018-08-20T05:59:19.662Z,23.24
2018-08-20T06:00:19.669Z,23.24
2018-08-20T06:01:19.703Z,23.40
2018-08-20T06:02:19.716Z,23.29
2018-08-20T06:03:19.749Z,23.32
2018-08-20T06:04:19.775Z,23.24
2018-08-20T06:05:19.801Z,23.32
2018-08-20T06:06:19.820Z,23.38
2018-08-20T06:07:19.844Z,23.38
2018-08-20T06:08:19.868Z,23.40
2018-08-20T06:09:19.893Z,23.39
2018-08-20T06:10:19.914Z,23.34
2018-08-20T06:11:19.945Z,23.35
2018-08-20T06:12:19.967Z,23.38
2018-08-20T06:13:19.992Z,23.38
2018-08-20T06:14:20.019Z,23.34
2018-08-20T06:15:20.062Z,23.45
2018-08-20T06:16:20.101Z,23.47
2018-08-20T06:17:20.089Z,23.39
2018-08-20T06:18:20.116Z,23.32
2018-08-20T06:19:20.141Z,23.42
2018-08-20T06:20:20.170Z,23.40
2018-08-20T06:21:20.189Z,23.45
2018-08-20T06:22:20.233Z,23.50
2018-08-20T06:23:20.235Z,23.53
2018-08-20T06:24:20.264Z,23.53
2018-08-20T06:25:20.287Z,23.35
2018-08-20T06:26:20.309Z,23.29
2018-08-20T06:27:20.337Z,23.29
2018-08-20T06:28:20.362Z,23.45
2018-08-20T06:29:20.395Z,23.50
2018-08-20T06:30:20.412Z,23.46
2018-08-20T06:31:20.475Z,23.47
2018-08-20T06:32:20.469Z,23.50
2018-08-20T06:33:20.485Z,23.45
2018-08-20T06:34:20.507Z,23.49
2018-08-20T06:35:20.529Z,23.52
2018-08-20T06:36:20.558Z,23.43
2018-08-20T06:37:20.582Z,23.52
2018-08-20T06:38:20.601Z,23.55
2018-08-20T06:39:20.643Z,23.68
2018-08-20T06:40:20.660Z,23.57
2018-08-20T06:41:20.683Z,23.45
2018-08-20T06:42:20.709Z,23.45
2018-08-20T06:43:20.730Z,23.50
2018-08-20T06:44:20.754Z,23.49
2018-08-20T06:45:20.781Z,23.46
2018-08-20T06:46:20.810Z,23.60
2018-08-20T06:47:20.829Z,23.50
2018-08-20T06:48:20.867Z,23.55
2018-08-20T06:49:20.880Z,23.60
2018-08-20T06:50:20.912Z,23.53
2018-08-20T06:51:20.980Z,23.61
2018-08-20T06:52:20.951Z,23.70
2018-08-20T06:53:20.983Z,23.60
2018-08-20T06:54:21.033Z,23.64
2018-08-20T06:55:21.027Z,23.55
2018-08-20T06:56:21.057Z,23.70
2018-08-20T06:57:21.089Z,23.68
2018-08-20T06:58:21.108Z,23.71
2018-08-20T06:59:21.133Z,23.75
2018-08-20T07:00:21.162Z,23.67
2018-08-20T07:02:21.204Z,23.75
2018-08-20T07:03:21.231Z,23.72
2018-08-20T07:04:21.252Z,23.68
2018-08-20T07:05:21.279Z,23.70
2018-08-20T07:06:21.394Z,23.75
2018-08-20T07:07:21.356Z,23.71
2018-08-20T07:08:21.359Z,23.82
2018-08-20T07:09:21.378Z,23.87
2018-08-20T07:10:21.416Z,23.92
2018-08-20T07:11:21.427Z,23.97
2018-08-20T07:12:21.453Z,23.89
2018-08-20T07:13:21.474Z,23.82
2018-08-20T07:14:21.512Z,23.87
2018-08-20T07:15:21.531Z,23.98
2018-08-20T07:16:21.561Z,23.92
2018-08-20T07:17:21.593Z,23.92
2018-08-20T07:18:21.605Z,24.01
2018-08-20T07:19:21.646Z,24.02
2018-08-20T07:20:21.654Z,24.07
2018-08-20T07:21:21.691Z,24.04
2018-08-20T07:22:21.716Z,23.87
2018-08-20T07:23:21.749Z,23.86
2018-08-20T07:24:21.757Z,23.97
2018-08-20T07:25:21.782Z,23.98
2018-08-20T07:26:21.806Z,24.07
2018-08-20T07:27:21.834Z,24.08
2018-08-20T07:28:21.862Z,24.16
2018-08-20T07:29:21.881Z,24.04
2018-08-20T07:30:21.915Z,23.92
2018-08-20T07:31:21.930Z,24.01
2018-08-20T07:32:21.970Z,24.05
2018-08-20T07:33:21.980Z,24.08
2018-08-20T07:34:22.023Z,24.04
2018-08-20T07:35:22.037Z,24.08
2018-08-20T07:36:22.063Z,24.08
2018-08-20T07:38:22.106Z,24.20
2018-08-20T07:39:22.133Z,24.04
2018-08-20T07:40:22.173Z,24.12
2018-08-20T07:41:22.203Z,24.08
2018-08-20T07:42:22.264Z,24.07
2018-08-20T07:43:22.238Z,24.14
2018-08-20T07:44:22.323Z,24.20
2018-08-20T07:45:22.295Z,24.19
2018-08-20T07:46:23.044Z,24.37
2018-08-20T07:47:22.339Z,24.37
2018-08-20T07:48:22.367Z,24.19
2018-08-20T07:49:22.392Z,24.19
2018-08-20T07:50:22.421Z,24.14
2018-08-20T07:51:22.440Z,24.14
2018-08-20T07:52:22.472Z,24.17
2018-08-20T07:53:22.502Z,24.17
2018-08-20T07:54:22.520Z,24.26
2018-08-20T07:55:22.542Z,24.24
2018-08-20T07:56:22.586Z,24.31
2018-08-20T07:57:22.598Z,24.34
2018-08-20T07:58:22.622Z,24.37
2018-08-20T07:59:22.648Z,24.44
2018-08-20T08:00:22.680Z,24.42
2018-08-20T08:01:22.702Z,24.50
2018-08-20T08:02:22.722Z,24.53
2018-08-20T08:03:22.758Z,24.52
2018-08-20T08:04:22.780Z,24.47
2018-08-20T08:05:22.801Z,24.57
2018-08-20T08:06:22.830Z,24.54
2018-08-20T08:07:22.855Z,24.61
2018-08-20T08:08:22.887Z,24.59
2018-08-20T08:09:22.903Z,24.67
2018-08-20T08:10:22.945Z,24.54
2018-08-20T08:11:22.958Z,24.59
2018-08-20T08:12:22.982Z,24.57
2018-08-20T08:14:23.041Z,24.59
2018-08-20T08:15:23.062Z,24.53
2018-08-20T08:17:23.110Z,24.73
2018-08-20T08:18:23.145Z,24.73
2018-08-20T08:19:23.164Z,24.80
2018-08-20T08:20:23.189Z,24.69
2018-08-20T08:21:23.217Z,24.76
2018-08-20T08:22:23.266Z,24.76
2018-08-20T08:23:23.286Z,24.88
2018-08-20T08:24:23.310Z,24.94
2018-08-20T08:25:23.334Z,24.91
2018-08-20T08:26:23.359Z,24.98
2018-08-20T08:27:23.374Z,25.07
2018-08-20T08:28:23.399Z,24.91
2018-08-20T08:29:23.426Z,24.92
2018-08-20T08:30:23.474Z,24.91
2018-08-20T08:31:23.480Z,24.95
2018-08-20T08:32:23.504Z,24.97
2018-08-20T08:33:23.527Z,24.97
2018-08-20T08:34:23.556Z,25.05
2018-08-20T08:35:23.595Z,24.97
2018-08-20T08:36:23.615Z,25.01
2018-08-20T08:37:23.648Z,25.02
2018-08-20T08:39:23.686Z,25.02
2018-08-20T08:40:23.714Z,25.09
2018-08-20T08:41:23.739Z,25.20
2018-08-20T08:42:23.769Z,25.09
2018-08-20T08:43:23.833Z,25.22
2018-08-20T08:44:23.829Z,25.22
2018-08-20T08:45:23.860Z,25.09
2018-08-20T08:46:23.882Z,25.31
2018-08-20T08:48:23.926Z,25.15
2018-08-20T08:49:23.946Z,25.24
2018-08-20T08:51:24.019Z,25.25
2018-08-20T08:52:24.033Z,25.24
2018-08-20T08:53:24.055Z,25.25
2018-08-20T08:54:24.089Z,25.22
2018-08-20T08:55:24.118Z,25.35
2018-08-20T08:56:24.135Z,25.32
2018-08-20T08:57:24.167Z,25.35
2018-08-20T08:58:24.184Z,25.27
2018-08-20T08:59:24.241Z,25.24
2018-08-20T09:00:24.267Z,25.34
2018-08-20T09:01:24.265Z,25.47
2018-08-20T09:02:24.301Z,25.42
2018-08-20T09:03:24.318Z,25.57
2018-08-20T09:04:24.345Z,25.59
2018-08-20T09:05:24.379Z,25.56
2018-08-20T09:06:24.408Z,25.47
2018-08-20T09:07:24.430Z,25.44
2018-08-20T09:08:24.455Z,25.42
2018-08-20T09:09:24.488Z,25.54
2018-08-20T09:10:24.517Z,25.47
2018-08-20T09:11:24.535Z,25.59
2018-08-20T09:12:24.566Z,25.62
2018-08-20T09:13:24.593Z,25.62
2018-08-20T09:14:24.617Z,25.65
2018-08-20T09:15:24.650Z,25.54
2018-08-20T09:16:24.670Z,25.68
2018-08-20T09:17:24.698Z,25.69
2018-08-20T09:18:24.736Z,25.74
2018-08-20T09:19:24.774Z,25.64
2018-08-20T09:20:24.799Z,25.72
2018-08-20T09:21:24.805Z,25.75
2018-08-20T09:22:24.876Z,25.72
2018-08-20T09:23:45.880Z,25.65
2018-08-20T09:24:24.890Z,25.75
2018-08-20T09:25:24.912Z,25.74
2018-08-20T09:26:24.946Z,25.80
2018-08-20T09:27:24.965Z,25.72
2018-08-20T09:28:25.018Z,25.72
2018-08-20T09:29:25.021Z,25.86
2018-08-20T09:30:25.090Z,25.77
2018-08-20T09:31:25.079Z,25.90
2018-08-20T09:32:25.192Z,25.86
2018-08-20T09:33:25.129Z,25.80
2018-08-20T09:34:25.158Z,25.79
2018-08-20T09:35:25.225Z,25.72
2018-08-20T09:36:25.208Z,25.75
2018-08-20T09:37:25.238Z,25.82
2018-08-20T09:38:25.313Z,25.91
2018-08-20T09:39:25.292Z,25.74
2018-08-20T09:40:25.327Z,25.86
2018-08-20T09:41:25.341Z,25.90
2018-08-20T09:42:25.365Z,25.91
2018-08-20T09:43:25.390Z,25.87
2018-08-20T09:44:25.428Z,25.83
2018-08-20T09:45:25.454Z,25.94
2018-08-20T09:46:25.481Z,25.97
2018-08-20T09:47:25.506Z,25.84
2018-08-20T09:48:25.534Z,25.89
2018-08-20T09:49:25.574Z,25.83
2018-08-20T09:50:25.596Z,25.87
2018-08-20T09:51:25.615Z,25.98
2018-08-20T09:52:25.641Z,26.01
2018-08-20T09:53:25.725Z,26.08
2018-08-20T09:54:25.693Z,26.05
2018-08-20T09:55:25.725Z,26.09
2018-08-20T09:56:25.773Z,26.21
2018-08-20T09:57:25.849Z,26.15
2018-08-20T09:58:25.816Z,26.01
2018-08-20T09:59:25.831Z,26.09
2018-08-20T10:00:25.855Z,26.29
2018-08-20T10:01:25.917Z,26.18
2018-08-20T10:02:25.911Z,26.17
2018-08-20T10:03:25.943Z,26.15
2018-08-20T10:04:25.971Z,26.09
2018-08-20T10:05:25.998Z,26.31
2018-08-20T10:06:26.038Z,26.27
2018-08-20T10:07:26.067Z,26.40
2018-08-20T10:08:26.079Z,26.43
2018-08-20T10:09:26.132Z,26.39
2018-08-20T10:10:26.141Z,26.47
2018-08-20T10:11:26.168Z,26.35
2018-08-20T10:12:26.198Z,26.21
2018-08-20T10:13:26.220Z,26.37
2018-08-20T10:14:26.257Z,26.44
2018-08-20T10:15:26.275Z,26.24
2018-08-20T10:16:26.319Z,26.42
2018-08-20T10:17:26.334Z,26.42
2018-08-20T10:18:26.363Z,26.31
2018-08-20T10:20:26.410Z,26.36
2018-08-20T10:21:26.450Z,26.58
2018-08-20T10:22:26.467Z,26.49
2018-08-20T10:23:26.534Z,26.47
2018-08-20T10:24:26.527Z,26.54
2018-08-20T10:25:26.549Z,26.40
2018-08-20T10:26:26.583Z,26.50
2018-08-20T10:27:26.602Z,26.46
2018-08-20T10:28:26.634Z,26.44
2018-08-20T10:29:26.661Z,26.35
2018-08-20T10:30:26.695Z,26.46
2018-08-20T10:31:26.710Z,26.54
2018-08-20T10:32:26.747Z,26.72
2018-08-20T10:33:26.780Z,26.73
2018-08-20T10:34:26.793Z,26.74
2018-08-20T10:35:26.823Z,26.59
2018-08-20T10:36:26.852Z,26.54
2018-08-20T10:37:26.891Z,26.61
2018-08-20T10:38:26.912Z,26.61
2018-08-20T10:39:26.930Z,26.62
2018-08-20T10:40:26.990Z,26.61
2018-08-20T10:41:26.988Z,26.58
2018-08-20T10:42:27.028Z,26.69
2018-08-20T10:43:27.046Z,26.69
2018-08-20T10:44:27.117Z,26.67
2018-08-20T10:45:27.101Z,26.61
2018-08-20T10:46:27.127Z,26.74
2018-08-20T10:47:27.161Z,26.80
2018-08-20T10:48:27.183Z,26.83
2018-08-20T10:49:27.214Z,26.92
2018-08-20T10:50:27.233Z,26.73
2018-08-20T10:51:27.263Z,26.86
2018-08-20T10:52:27.289Z,26.79
2018-08-20T10:53:27.324Z,27.02
2018-08-20T10:54:27.362Z,26.98
2018-08-20T10:55:27.373Z,27.01
2018-08-20T10:56:27.492Z,26.96
2018-08-20T10:57:27.431Z,27.01
2018-08-20T10:58:27.465Z,26.95
2018-08-20T10:59:27.491Z,26.98
2018-08-20T11:00:27.516Z,26.94
2018-08-20T11:01:27.542Z,26.95
2018-08-20T11:02:27.583Z,26.96
2018-08-20T11:03:27.596Z,27.14
2018-08-20T11:04:27.621Z,27.09
2018-08-20T11:05:27.650Z,27.10
2018-08-20T11:06:27.688Z,27.01
2018-08-20T11:07:27.709Z,27.01
2018-08-20T11:08:27.773Z,27.04
2018-08-20T11:09:27.771Z,26.95
2018-08-20T11:10:27.794Z,27.01
2018-08-20T11:11:27.820Z,27.01
2018-08-20T11:12:27.851Z,27.09
2018-08-20T11:13:27.881Z,27.16
2018-08-20T11:14:27.908Z,27.11
2018-08-20T11:15:27.928Z,27.26
2018-08-20T11:16:27.965Z,27.21
2018-08-20T11:17:27.999Z,27.20
2018-08-20T11:18:28.089Z,27.26
2018-08-20T11:19:28.048Z,27.24
2018-08-20T11:20:28.081Z,27.36
2018-08-20T11:21:28.101Z,27.38
2018-08-20T11:22:28.142Z,27.24
2018-08-20T11:23:28.161Z,27.21
2018-08-20T11:24:28.191Z,27.32
2018-08-20T11:25:28.214Z,27.36
2018-08-20T11:26:28.245Z,27.29
2018-08-20T11:27:28.277Z,27.38
2018-08-20T11:28:28.307Z,27.48
2018-08-20T11:29:28.329Z,27.38
2018-08-20T11:30:28.357Z,27.36
2018-08-20T11:31:28.381Z,27.38
2018-08-20T11:32:28.433Z,27.43
2018-08-20T11:33:28.437Z,27.41
2018-08-20T11:34:28.471Z,27.33
2018-08-20T11:35:28.501Z,27.24
2018-08-20T11:36:28.578Z,27.20
2018-08-20T11:37:28.560Z,27.41
2018-08-20T11:38:28.589Z,27.59
2018-08-20T11:39:28.619Z,27.64
2018-08-20T11:40:28.647Z,27.59
2018-08-20T11:41:28.666Z,27.58
2018-08-20T11:42:28.697Z,27.62
2018-08-20T11:43:28.789Z,27.58
2018-08-20T11:44:28.756Z,27.57
2018-08-20T11:45:28.792Z,27.51
2018-08-20T11:46:28.812Z,27.67
2018-08-20T11:47:28.857Z,27.77
2018-08-20T11:48:28.878Z,27.77
2018-08-20T11:49:28.894Z,27.86
2018-08-20T11:50:28.918Z,27.82
2018-08-20T11:51:28.965Z,27.76
2018-08-20T11:52:28.983Z,27.69
2018-08-20T11:53:29.011Z,27.67
2018-08-20T11:54:29.083Z,27.77
2018-08-20T11:55:29.070Z,27.89
2018-08-20T11:56:29.100Z,27.73
2018-08-20T11:57:29.122Z,27.79
2018-08-20T11:58:29.172Z,27.91
2018-08-20T11:59:29.192Z,27.86
2018-08-20T12:00:29.224Z,28.03
2018-08-20T12:01:29.244Z,28.01
2018-08-20T12:02:29.272Z,28.21
2018-08-20T12:03:29.294Z,28.17
2018-08-20T12:04:29.328Z,28.09
2018-08-20T12:05:29.387Z,27.98
2018-08-20T12:06:29.398Z,28.01
2018-08-20T12:07:29.492Z,27.98
2018-08-20T12:08:29.441Z,28.10
2018-08-20T12:09:29.471Z,28.06
2018-08-20T12:10:29.505Z,28.11
2018-08-20T12:11:29.537Z,28.07
2018-08-20T12:12:29.560Z,28.03
2018-08-20T12:13:29.616Z,28.09
2018-08-20T12:14:29.622Z,28.14
2018-08-20T12:15:29.651Z,28.09
2018-08-20T12:17:29.720Z,28.26
2018-08-20T12:18:29.742Z,28.29
2018-08-20T12:19:29.768Z,28.21
2018-08-20T12:20:29.797Z,28.35
2018-08-20T12:21:29.833Z,28.33
2018-08-20T12:22:29.955Z,28.17
2018-08-20T12:23:29.894Z,28.16
2018-08-20T12:24:29.939Z,28.13
2018-08-20T12:25:29.951Z,28.09
2018-08-20T12:26:29.969Z,28.07
2018-08-20T12:27:30.004Z,28.09
2018-08-20T12:28:30.034Z,27.96
2018-08-20T12:29:30.070Z,28.04
2018-08-20T12:30:30.090Z,27.98
2018-08-20T12:31:30.123Z,28.09
2018-08-20T12:32:30.153Z,28.07
2018-08-20T12:33:30.191Z,28.10
2018-08-20T12:34:30.208Z,28.33
2018-08-20T12:35:30.239Z,28.44
2018-08-20T12:36:31.211Z,28.33
2018-08-20T12:37:30.297Z,28.35
2018-08-20T12:38:30.330Z,28.28
2018-08-20T12:39:30.355Z,28.35
2018-08-20T12:40:30.487Z,28.41
2018-08-20T12:41:30.419Z,28.38
2018-08-20T12:42:30.458Z,28.32
2018-08-20T12:43:30.467Z,28.32
2018-08-20T12:44:30.532Z,28.35
2018-08-20T12:45:30.580Z,28.25
2018-08-20T12:46:30.584Z,28.33
2018-08-20T12:47:30.596Z,28.35
2018-08-20T12:48:30.620Z,28.25
2018-08-20T12:49:30.652Z,28.31
2018-08-20T12:50:30.688Z,28.29
2018-08-20T12:51:30.705Z,28.35
2018-08-20T12:52:30.737Z,28.36
2018-08-20T12:53:30.763Z,28.53
2018-08-20T12:54:30.800Z,28.43
2018-08-20T12:55:30.821Z,28.38
2018-08-20T12:56:30.854Z,28.50
2018-08-20T12:57:30.883Z,28.33
2018-08-20T12:58:30.963Z,28.31
2018-08-20T12:59:30.950Z,28.31
2018-08-20T13:00:31.019Z,28.16
2018-08-20T13:01:31.006Z,28.25
2018-08-20T13:02:31.041Z,28.19
2018-08-20T13:03:31.061Z,28.22
2018-08-20T13:04:31.089Z,28.17
2018-08-20T13:05:31.126Z,28.16
2018-08-20T13:06:31.177Z,28.11
2018-08-20T13:07:31.203Z,28.04
2018-08-20T13:08:31.211Z,28.11
2018-08-20T13:09:31.241Z,28.07
2018-08-20T13:10:31.263Z,28.14
2018-08-20T13:11:31.291Z,28.07
2018-08-20T13:12:31.328Z,28.11
2018-08-20T13:13:31.348Z,28.07
2018-08-20T13:14:31.366Z,28.14
2018-08-20T13:15:31.408Z,28.14